createdAt,value
2024-05-09T00:00:00.350Z,98905.81
2024-05-09T00:01:32.164Z,98903.88
2024-05-09T00:03:07.098Z,98904.31
2024-05-09T00:04:39.610Z,98903.63
2024-05-09T00:06:11.460Z,98908.03
2024-05-09T00:07:43.385Z,98901.38
2024-05-09T00:09:15.187Z,98895.69
2024-05-09T00:10:47.018Z,98900.41
2024-05-09T00:12:18.861Z,98896.94
2024-05-09T00:13:50.907Z,98901.41
2024-05-09T00:15:22.739Z,98901.28
2024-05-09T00:16:54.532Z,98902.69
2024-05-09T00:18:26.446Z,98900.81
2024-05-09T00:19:58.533Z,98906.06
2024-05-09T00:21:30.395Z,98898.81
2024-05-09T00:23:02.229Z,98897.16
2024-05-09T00:24:34.043Z,98901.66
2024-05-09T00:26:05.862Z,98898.59
2024-05-09T00:27:37.648Z,98900.63
2024-05-09T00:29:09.490Z,98898.28
2024-05-09T00:30:41.408Z,98900.16
2024-05-09T00:32:13.242Z,98895.59
2024-05-09T00:33:45.097Z,98897.09
2024-05-09T00:35:16.919Z,98895.63
2024-05-09T00:36:48.638Z,98899.72
2024-05-09T00:38:20.402Z,98900.88
2024-05-09T00:39:52.138Z,98903.88
2024-05-09T00:41:23.928Z,98904.34
2024-05-09T00:42:55.663Z,98896.66
2024-05-09T00:44:27.504Z,98900.72
2024-05-09T00:46:01.975Z,98900.84
2024-05-09T00:47:34.426Z,98903.25
2024-05-09T00:49:08.491Z,98898.25
2024-05-09T00:50:42.411Z,98897.38
2024-05-09T00:52:14.258Z,98896.59
2024-05-09T00:53:46.890Z,98892.03
2024-05-09T00:55:18.651Z,98892.41
2024-05-09T00:56:52.461Z,98900.50
2024-05-09T00:58:27.602Z,98891.16
2024-05-09T00:59:59.898Z,98889.13
2024-05-09T01:01:31.775Z,98887.97
2024-05-09T01:03:03.776Z,98890.28
2024-05-09T01:04:35.769Z,98887.53
2024-05-09T01:06:07.491Z,98883.38
2024-05-09T01:07:39.265Z,98891.59
2024-05-09T01:09:11.130Z,98883.63
2024-05-09T01:10:45.087Z,98879.19
2024-05-09T01:12:18.785Z,98884.28
2024-05-09T01:13:50.679Z,98883.13
2024-05-09T01:15:22.448Z,98882.31
2024-05-09T01:16:54.379Z,98886.47
2024-05-09T01:18:26.279Z,98891.13
2024-05-09T01:19:58.129Z,98885.19
2024-05-09T01:21:29.860Z,98887.00
2024-05-09T01:23:06.684Z,98885.72
2024-05-09T01:24:38.552Z,98879.28
2024-05-09T01:26:10.414Z,98884.38
2024-05-09T01:27:42.164Z,98883.78
2024-05-09T01:29:14.219Z,98881.47
2024-05-09T01:30:46.056Z,98882.88
2024-05-09T01:32:17.879Z,98882.84
2024-05-09T01:33:49.894Z,98882.63
2024-05-09T01:35:23.710Z,98878.91
2024-05-09T01:36:55.708Z,98878.22
2024-05-09T01:38:27.463Z,98880.97
2024-05-09T01:39:59.215Z,98876.41
2024-05-09T01:41:31.759Z,98879.13
2024-05-09T01:43:03.666Z,98874.47
2024-05-09T01:44:35.398Z,98883.09
2024-05-09T01:46:14.231Z,98874.00
2024-05-09T01:47:46.283Z,98879.09
2024-05-09T01:49:18.437Z,98886.41
2024-05-09T01:50:50.321Z,98883.69
2024-05-09T01:52:22.080Z,98885.72
2024-05-09T01:53:56.308Z,98887.53
2024-05-09T01:55:28.198Z,98889.84
2024-05-09T01:57:00.148Z,98893.28
2024-05-09T01:58:31.905Z,98889.97
2024-05-09T02:00:07.665Z,98884.47
2024-05-09T02:01:56.199Z,98885.94
2024-05-09T02:03:29.772Z,98893.06
2024-05-09T02:05:01.672Z,98882.19
2024-05-09T02:06:39.699Z,98883.03
2024-05-09T02:08:24.080Z,98881.94
2024-05-09T02:09:55.844Z,98879.25
2024-05-09T02:11:27.643Z,98885.19
2024-05-09T02:12:59.382Z,98883.81
2024-05-09T02:14:31.184Z,98888.28
2024-05-09T02:16:03.028Z,98872.81
2024-05-09T02:17:34.846Z,98892.72
2024-05-09T02:19:06.745Z,98886.31
2024-05-09T02:20:44.238Z,98888.97
2024-05-09T02:22:16.101Z,98885.06
2024-05-09T02:23:47.847Z,98889.94
2024-05-09T02:25:22.009Z,98891.69
2024-05-09T02:26:53.943Z,98883.06
2024-05-09T02:28:25.635Z,98884.66
2024-05-09T02:29:57.390Z,98887.84
2024-05-09T02:31:29.053Z,98899.31
2024-05-09T02:33:01.018Z,98896.06
2024-05-09T02:34:32.879Z,98894.16
2024-05-09T02:36:05.628Z,98898.16
2024-05-09T02:37:37.340Z,98891.16
2024-05-09T02:39:09.034Z,98893.16
2024-05-09T02:40:41.021Z,98894.78
2024-05-09T02:42:12.877Z,98893.00
2024-05-09T02:43:44.633Z,98896.09
2024-05-09T02:45:16.320Z,98898.44
2024-05-09T02:46:48.119Z,98895.72
2024-05-09T02:48:20.069Z,98899.03
2024-05-09T02:49:52.026Z,98897.50
2024-05-09T02:51:23.764Z,98889.22
2024-05-09T02:52:55.551Z,98892.16
2024-05-09T02:54:27.351Z,98891.72
2024-05-09T02:55:59.380Z,98894.06
2024-05-09T02:57:31.083Z,98892.19
2024-05-09T02:59:02.868Z,98890.88
2024-05-09T03:00:39.333Z,98896.94
2024-05-09T03:02:13.738Z,98896.50
2024-05-09T03:03:48.445Z,98895.66
2024-05-09T03:05:20.340Z,98895.97
2024-05-09T03:06:52.186Z,98904.22
2024-05-09T03:08:23.959Z,98900.03
2024-05-09T03:09:55.664Z,98901.75
2024-05-09T03:11:27.437Z,98899.00
2024-05-09T03:12:59.566Z,98900.66
2024-05-09T03:14:31.342Z,98895.34
2024-05-09T03:16:03.182Z,98900.75
2024-05-09T03:17:35.217Z,98897.03
2024-05-09T03:19:07.180Z,98898.94
2024-05-09T03:20:39.491Z,98899.56
2024-05-09T03:22:12.530Z,98901.41
2024-05-09T03:23:44.462Z,98905.97
2024-05-09T03:25:16.354Z,98901.44
2024-05-09T03:26:48.335Z,98911.13
2024-05-09T03:28:20.051Z,98903.91
2024-05-09T03:29:51.797Z,98907.25
2024-05-09T03:31:23.515Z,98907.38
2024-05-09T03:32:55.290Z,98906.25
2024-05-09T03:34:27.128Z,98915.94
2024-05-09T03:35:58.827Z,98908.59
2024-05-09T03:37:30.539Z,98907.44
2024-05-09T03:39:02.243Z,98900.97
2024-05-09T03:40:33.996Z,98902.19
2024-05-09T03:42:05.758Z,98907.06
2024-05-09T03:43:37.496Z,98905.97
2024-05-09T03:45:09.247Z,98896.88
2024-05-09T03:46:40.986Z,98898.44
2024-05-09T03:48:13.162Z,98898.09
2024-05-09T03:49:45.145Z,98900.34
2024-05-09T03:51:16.966Z,98896.50
2024-05-09T03:52:48.703Z,98892.38
2024-05-09T03:54:20.561Z,98899.38
2024-05-09T03:55:52.306Z,98898.81
2024-05-09T03:57:24.108Z,98898.69
2024-05-09T03:58:56.486Z,98901.13
2024-05-09T04:00:35.652Z,98903.53
2024-05-09T04:02:10.406Z,98907.50
2024-05-09T04:03:42.361Z,98910.00
2024-05-09T04:05:15.179Z,98913.25
2024-05-09T04:06:46.933Z,98907.44
2024-05-09T04:08:18.843Z,98903.13
2024-05-09T04:09:50.614Z,98907.69
2024-05-09T04:11:22.439Z,98909.75
2024-05-09T04:12:54.520Z,98912.56
2024-05-09T04:14:26.408Z,98918.44
2024-05-09T04:15:58.144Z,98908.72
2024-05-09T04:17:30.093Z,98915.59
2024-05-09T04:19:02.240Z,98908.66
2024-05-09T04:20:38.783Z,98916.00
2024-05-09T04:22:12.524Z,98909.66
2024-05-09T04:23:44.278Z,98910.97
2024-05-09T04:25:16.076Z,98910.56
2024-05-09T04:26:47.789Z,98906.44
2024-05-09T04:28:19.531Z,98909.31
2024-05-09T04:29:51.229Z,98911.53
2024-05-09T04:31:23.145Z,98909.75
2024-05-09T04:32:55.089Z,98908.22
2024-05-09T04:34:26.907Z,98911.78
2024-05-09T04:35:58.672Z,98906.09
2024-05-09T04:37:30.541Z,98898.69
2024-05-09T04:39:02.237Z,98903.09
2024-05-09T04:40:36.710Z,98904.69
2024-05-09T04:42:09.339Z,98908.78
2024-05-09T04:43:41.105Z,98907.13
2024-05-09T04:45:12.890Z,98908.38
2024-05-09T04:46:44.743Z,98910.25
2024-05-09T04:48:17.112Z,98912.31
2024-05-09T04:49:48.996Z,98912.16
2024-05-09T04:51:20.734Z,98915.19
2024-05-09T04:52:52.466Z,98910.81
2024-05-09T04:54:33.678Z,98904.84
2024-05-09T04:56:08.447Z,98902.59
2024-05-09T04:57:40.178Z,98905.91
2024-05-09T04:59:11.927Z,98902.97
2024-05-09T05:00:43.795Z,98914.19
2024-05-09T05:02:15.719Z,98911.34
2024-05-09T05:03:47.793Z,98913.50
2024-05-09T05:05:19.741Z,98909.47
2024-05-09T05:06:51.599Z,98907.44
2024-05-09T05:08:23.463Z,98908.84
2024-05-09T05:09:55.254Z,98906.56
2024-05-09T05:11:27.042Z,98906.66
2024-05-09T05:13:19.974Z,98908.41
2024-05-09T05:14:53.358Z,98913.34
2024-05-09T05:16:26.112Z,98908.84
2024-05-09T05:17:58.022Z,98911.66
2024-05-09T05:19:29.921Z,98900.97
2024-05-09T05:21:01.863Z,98905.88
2024-05-09T05:22:33.644Z,98904.28
2024-05-09T05:24:05.653Z,98903.19
2024-05-09T05:25:37.600Z,98907.41
2024-05-09T05:27:09.425Z,98900.97
2024-05-09T05:28:41.149Z,98904.75
2024-05-09T05:30:21.028Z,98908.72
2024-05-09T05:31:57.116Z,98909.19
2024-05-09T05:33:29.016Z,98910.47
2024-05-09T05:35:00.884Z,98911.25
2024-05-09T05:36:32.572Z,98915.59
2024-05-09T05:38:07.037Z,98914.06
2024-05-09T05:39:38.786Z,98912.88
2024-05-09T05:41:10.662Z,98915.41
2024-05-09T05:42:42.927Z,98920.41
2024-05-09T05:44:15.882Z,98915.50
2024-05-09T05:45:47.736Z,98913.44
2024-05-09T05:47:19.648Z,98916.94
2024-05-09T05:48:51.568Z,98921.06
2024-05-09T05:50:28.096Z,98922.69
2024-05-09T05:52:07.169Z,98922.41
2024-05-09T05:53:38.957Z,98923.47
2024-05-09T05:55:10.745Z,98924.63
2024-05-09T05:56:42.476Z,98921.84
2024-05-09T05:58:17.402Z,98926.31
2024-05-09T05:59:49.183Z,98930.44
2024-05-09T06:01:20.972Z,98930.97
2024-05-09T06:02:53.353Z,98928.75
2024-05-09T06:04:25.396Z,98930.56
2024-05-09T06:05:57.279Z,98927.06
2024-05-09T06:07:29.091Z,98922.69
2024-05-09T06:09:00.885Z,98926.69
2024-05-09T06:10:38.280Z,98924.09
2024-05-09T06:12:12.295Z,98930.25
2024-05-09T06:13:44.238Z,98923.91
2024-05-09T06:15:15.970Z,98919.00
2024-05-09T06:16:47.881Z,98922.66
2024-05-09T06:18:19.954Z,98919.28
2024-05-09T06:19:52.123Z,98923.19
2024-05-09T06:21:23.909Z,98923.09
2024-05-09T06:22:55.661Z,98922.88
2024-05-09T06:24:27.562Z,98920.53
2024-05-09T06:25:59.289Z,98928.50
2024-05-09T06:27:31.034Z,98926.00
2024-05-09T06:29:02.833Z,98931.13
2024-05-09T06:30:40.188Z,98929.38
2024-05-09T06:32:13.660Z,98922.47
2024-05-09T06:33:45.615Z,98920.47
2024-05-09T06:35:17.542Z,98920.63
2024-05-09T06:36:49.224Z,98924.22
2024-05-09T06:38:21.075Z,98915.00
2024-05-09T06:39:52.804Z,98918.03
2024-05-09T06:41:24.701Z,98916.28
2024-05-09T06:44:29.645Z,98915.91
2024-05-09T06:46:01.435Z,98917.22
2024-05-09T06:47:33.289Z,98918.69
2024-05-09T06:49:08.358Z,98916.56
2024-05-09T06:50:41.525Z,98921.09
2024-05-09T06:52:13.307Z,98921.00
2024-05-09T06:53:45.059Z,98917.84
2024-05-09T06:55:16.750Z,98921.13
2024-05-09T06:56:48.492Z,98917.59
2024-05-09T06:58:20.724Z,98922.94
2024-05-09T06:59:52.579Z,98923.91
2024-05-09T07:01:24.444Z,98917.06
2024-05-09T07:02:56.340Z,98927.03
2024-05-09T07:04:28.264Z,98915.88
2024-05-09T07:06:00.077Z,98917.53
2024-05-09T07:07:31.802Z,98916.84
2024-05-09T07:09:03.625Z,98916.84
2024-05-09T07:10:36.825Z,98916.88
2024-05-09T07:12:09.165Z,98915.53
2024-05-09T07:13:41.009Z,98913.41
2024-05-09T07:15:12.728Z,98908.94
2024-05-09T07:16:44.487Z,98910.28
2024-05-09T07:18:18.432Z,98912.09
2024-05-09T07:19:51.431Z,98909.59
2024-05-09T07:21:23.658Z,98910.88
2024-05-09T07:22:55.504Z,98912.53
2024-05-09T07:24:27.269Z,98911.81
2024-05-09T07:25:58.984Z,98911.53
2024-05-09T07:27:30.715Z,98908.03
2024-05-09T07:29:02.569Z,98913.34
2024-05-09T07:30:35.122Z,98908.22
2024-05-09T07:32:08.997Z,98910.53
2024-05-09T07:33:40.826Z,98906.22
2024-05-09T07:35:12.901Z,98906.72
2024-05-09T07:36:44.706Z,98903.19
2024-05-09T07:38:16.895Z,98897.25
2024-05-09T07:39:48.624Z,98903.41
2024-05-09T07:41:20.395Z,98896.28
2024-05-09T07:42:52.150Z,98888.06
2024-05-09T07:44:23.960Z,98897.47
2024-05-09T07:45:59.164Z,98888.97
2024-05-09T07:49:11.904Z,98881.94
2024-05-09T07:53:34.273Z,98880.38
2024-05-09T07:54:33.802Z,98877.75
2024-05-09T07:56:06.326Z,98884.38
2024-05-09T07:57:38.268Z,98874.34
2024-05-09T07:59:10.000Z,98883.41
2024-05-09T08:00:41.807Z,98887.81
2024-05-09T08:02:13.715Z,98882.53
2024-05-09T08:03:45.791Z,98883.94
2024-05-09T08:05:17.755Z,98878.97
2024-05-09T08:06:49.606Z,98878.88
2024-05-09T08:08:23.377Z,98877.94
2024-05-09T08:09:55.320Z,98881.03
2024-05-09T08:11:27.117Z,98883.91
2024-05-09T08:12:58.880Z,98873.94
2024-05-09T08:14:31.313Z,98873.94
2024-05-09T08:16:03.126Z,98871.13
2024-05-09T08:17:35.272Z,98877.41
2024-05-09T08:19:07.136Z,98870.06
2024-05-09T08:20:40.275Z,98871.25
2024-05-09T08:22:12.035Z,98865.72
2024-05-09T08:23:43.799Z,98870.41
2024-05-09T08:25:15.749Z,98868.59
2024-05-09T08:26:47.649Z,98868.72
2024-05-09T08:28:19.643Z,98867.09
2024-05-09T08:29:51.557Z,98860.97
2024-05-09T08:31:23.416Z,98860.34
2024-05-09T08:32:55.300Z,98857.91
2024-05-09T08:34:27.313Z,98855.78
2024-05-09T08:35:59.054Z,98854.53
2024-05-09T08:37:35.030Z,98850.00
2024-05-09T08:39:09.763Z,98848.25
2024-05-09T08:40:41.944Z,98849.53
2024-05-09T08:42:17.602Z,98850.91
2024-05-09T08:43:49.328Z,98852.34
2024-05-09T08:45:21.767Z,98853.34
2024-05-09T08:46:53.826Z,98853.25
2024-05-09T08:48:26.275Z,98848.19
2024-05-09T08:50:03.173Z,98852.53
2024-05-09T08:51:35.729Z,98848.97
2024-05-09T08:53:08.668Z,98856.31
2024-05-09T08:54:40.764Z,98847.16
2024-05-09T09:03:06.630Z,98845.06
2024-05-09T09:04:41.006Z,98844.41
2024-05-09T09:06:16.645Z,98856.06
2024-05-09T09:07:51.386Z,98859.47
2024-05-09T09:09:23.786Z,98852.44
2024-05-09T09:10:58.782Z,98849.50
2024-05-09T09:12:30.577Z,98855.25
2024-05-09T09:14:02.355Z,98856.38
2024-05-09T09:15:34.145Z,98851.00
2024-05-09T09:17:13.693Z,98843.03
2024-05-09T09:18:49.658Z,98842.56
2024-05-09T09:20:28.765Z,98839.81
2024-05-09T09:22:05.869Z,98840.97
2024-05-09T09:23:39.466Z,98846.16
2024-05-09T09:25:11.293Z,98845.72
2024-05-09T09:26:45.196Z,98836.72
2024-05-09T09:28:17.079Z,98829.31
2024-05-09T09:29:49.139Z,98841.16
2024-05-09T09:31:21.110Z,98840.41
2024-05-09T09:32:53.155Z,98834.22
2024-05-09T09:34:28.591Z,98834.94
2024-05-09T09:36:04.192Z,98833.41
2024-05-09T09:37:37.950Z,98841.03
2024-05-09T09:39:10.053Z,98835.25
2024-05-09T09:40:49.561Z,98836.69
2024-05-09T09:42:23.483Z,98837.31
2024-05-09T09:43:57.810Z,98833.59
2024-05-09T09:45:31.401Z,98834.09
2024-05-09T09:47:03.351Z,98829.19
2024-05-09T09:48:36.514Z,98831.06
2024-05-09T09:50:14.294Z,98836.41
2024-05-09T09:51:49.518Z,98835.16
2024-05-09T09:53:23.643Z,98831.25
2024-05-09T09:54:57.259Z,98834.22
2024-05-09T09:56:30.788Z,98829.00
2024-05-09T09:58:04.320Z,98830.69
2024-05-09T09:59:39.325Z,98836.91
2024-05-09T10:01:11.322Z,98833.75
2024-05-09T10:02:43.541Z,98836.09
2024-05-09T10:04:19.026Z,98831.16
2024-05-09T10:05:51.885Z,98828.97
2024-05-09T10:07:24.696Z,98825.56
2024-05-09T10:08:57.251Z,98829.97
2024-05-09T10:10:33.466Z,98829.59
2024-05-09T10:12:13.663Z,98828.16
2024-05-09T10:13:46.483Z,98823.88
2024-05-09T10:15:19.759Z,98828.81
2024-05-09T10:16:51.498Z,98826.97
2024-05-09T10:18:29.170Z,98827.13
2024-05-09T10:20:14.509Z,98826.75
2024-05-09T10:22:01.620Z,98817.69
2024-05-09T10:23:36.565Z,98828.25
2024-05-09T10:25:09.324Z,98819.66
2024-05-09T10:26:41.216Z,98828.28
2024-05-09T10:28:13.108Z,98818.31
2024-05-09T10:29:52.495Z,98811.41
2024-05-09T10:31:28.570Z,98815.41
2024-05-09T10:33:00.390Z,98816.06
2024-05-09T10:34:36.865Z,98815.22
2024-05-09T10:36:12.811Z,98818.78
2024-05-09T10:37:46.352Z,98811.16
2024-05-09T10:39:19.795Z,98826.69
2024-05-09T10:40:56.947Z,98812.66
2024-05-09T10:42:28.867Z,98812.31
2024-05-09T10:44:00.592Z,98803.81
2024-05-09T10:45:32.759Z,98814.28
2024-05-09T10:47:04.595Z,98808.84
2024-05-09T10:48:37.420Z,98814.47
2024-05-09T10:50:18.307Z,98810.16
2024-05-09T10:51:57.308Z,98801.47
2024-05-09T10:53:29.058Z,98798.81
2024-05-09T10:55:02.299Z,98800.28
2024-05-09T10:56:35.611Z,98806.81
2024-05-09T10:58:17.718Z,98790.91
2024-05-09T10:59:50.228Z,98785.84
2024-05-09T11:01:22.186Z,98787.25
2024-05-09T11:02:54.280Z,98796.81
2024-05-09T11:04:27.900Z,98787.25
2024-05-09T11:05:59.852Z,98791.25
2024-05-09T11:07:31.767Z,98800.09
2024-05-09T11:09:03.738Z,98784.13
2024-05-09T11:10:36.537Z,98787.19
2024-05-09T11:12:09.149Z,98788.19
2024-05-09T11:13:44.452Z,98789.91
2024-05-09T11:15:17.410Z,98780.97
2024-05-09T11:17:05.770Z,98772.84
2024-05-09T11:18:39.220Z,98777.97
2024-05-09T11:20:17.071Z,98765.56
2024-05-09T11:21:55.570Z,98765.16
2024-05-09T11:23:30.137Z,98768.38
2024-05-09T11:25:01.936Z,98768.16
2024-05-09T11:26:35.332Z,98766.53
2024-05-09T11:28:09.442Z,98773.09
2024-05-09T11:29:47.788Z,98767.53
2024-05-09T11:31:19.730Z,98765.09
2024-05-09T11:32:52.818Z,98765.50
2024-05-09T11:34:25.733Z,98760.81
2024-05-09T11:35:57.657Z,98758.97
2024-05-09T11:37:31.388Z,98763.47
2024-05-09T11:39:04.110Z,98762.84
2024-05-09T11:40:38.125Z,98759.78
2024-05-09T11:42:09.984Z,98763.03
2024-05-09T11:43:41.708Z,98762.25
2024-05-09T11:45:13.624Z,98763.22
2024-05-09T11:46:48.704Z,98758.72
2024-05-09T11:48:20.620Z,98756.31
2024-05-09T11:49:56.888Z,98762.44
2024-05-09T11:51:28.819Z,98765.31
2024-05-09T11:53:00.562Z,98760.81
2024-05-09T11:54:32.366Z,98764.88
2024-05-09T11:56:07.822Z,98763.84
2024-05-09T11:57:39.834Z,98760.78
2024-05-09T11:59:11.722Z,98760.81
2024-05-09T12:00:46.469Z,98751.56
2024-05-09T12:02:18.764Z,98756.50
2024-05-09T12:03:51.877Z,98753.47
2024-05-09T12:05:24.053Z,98754.66
2024-05-09T12:07:02.328Z,98755.31
2024-05-09T12:08:36.894Z,98756.94
2024-05-09T12:10:14.227Z,98746.91
2024-05-09T12:11:51.257Z,98744.84
2024-05-09T12:13:23.324Z,98742.59
2024-05-09T12:14:55.253Z,98750.38
2024-05-09T12:16:27.179Z,98737.69
2024-05-09T12:18:02.452Z,98745.88
2024-05-09T12:19:35.962Z,98744.25
2024-05-09T12:21:07.854Z,98739.13
2024-05-09T12:22:39.573Z,98745.66
2024-05-09T12:24:12.114Z,98738.13
2024-05-09T12:25:47.277Z,98737.06
2024-05-09T12:27:18.990Z,98739.13
2024-05-09T12:28:50.844Z,98733.81
2024-05-09T12:30:32.748Z,98739.53
2024-05-09T12:32:09.343Z,98724.19
2024-05-09T12:33:41.248Z,98724.00
2024-05-09T12:35:16.725Z,98728.00
2024-05-09T12:36:48.573Z,98730.09
2024-05-09T12:38:20.318Z,98732.09
2024-05-09T12:39:52.319Z,98726.47
2024-05-09T12:41:26.692Z,98734.03
2024-05-09T12:42:58.446Z,98727.03
2024-05-09T12:44:30.239Z,98728.47
2024-05-09T12:46:03.568Z,98725.75
2024-05-09T12:47:38.503Z,98722.50
2024-05-09T12:49:10.614Z,98724.41
2024-05-09T12:50:45.814Z,98730.13
2024-05-09T12:52:17.658Z,98712.66
2024-05-09T12:53:49.437Z,98721.75
2024-05-09T12:55:21.330Z,98722.03
2024-05-09T12:56:53.158Z,98716.53
2024-05-09T12:58:24.979Z,98729.22
2024-05-09T12:59:56.853Z,98724.16
2024-05-09T13:01:28.860Z,98723.75
2024-05-09T13:03:01.109Z,98715.59
2024-05-09T13:04:33.399Z,98721.25
2024-05-09T13:06:05.445Z,98720.66
2024-05-09T13:07:38.585Z,98715.84
2024-05-09T13:09:11.837Z,98719.59
2024-05-09T13:10:44.019Z,98701.88
2024-05-09T13:12:15.958Z,98700.81
2024-05-09T13:13:47.696Z,98702.81
2024-05-09T13:15:19.404Z,98711.84
2024-05-09T13:16:51.725Z,98700.06
2024-05-09T13:18:23.557Z,98711.63
2024-05-09T13:19:55.318Z,98711.41
2024-05-09T13:21:27.040Z,98708.34
2024-05-09T13:23:01.294Z,98708.63
2024-05-09T13:24:33.137Z,98705.59
2024-05-09T13:26:05.096Z,98699.03
2024-05-09T13:27:36.817Z,98701.78
2024-05-09T13:29:08.592Z,98691.94
2024-05-09T13:30:42.117Z,98695.94
2024-05-09T13:32:14.271Z,98697.00
2024-05-09T13:33:46.105Z,98682.00
2024-05-09T13:35:17.907Z,98691.31
2024-05-09T13:36:49.843Z,98699.84
2024-05-09T13:38:22.361Z,98697.69
2024-05-09T13:39:54.184Z,98687.72
2024-05-09T13:41:25.921Z,98686.75
2024-05-09T13:42:57.709Z,98684.25
2024-05-09T13:44:29.597Z,98679.72
2024-05-09T13:46:01.359Z,98678.47
2024-05-09T13:47:33.464Z,98677.53
2024-05-09T13:49:07.110Z,98682.13
2024-05-09T13:50:40.334Z,98677.88
2024-05-09T13:52:12.058Z,98676.44
2024-05-09T13:53:43.809Z,98670.84
2024-05-09T13:55:15.757Z,98673.38
2024-05-09T13:56:47.585Z,98664.78
2024-05-09T13:58:19.753Z,98668.34
2024-05-09T13:59:51.540Z,98661.94
2024-05-09T14:01:23.422Z,98662.56
2024-05-09T14:02:55.314Z,98663.38
2024-05-09T14:04:27.330Z,98660.56
2024-05-09T14:05:59.675Z,98658.72
2024-05-09T14:07:32.149Z,98659.28
2024-05-09T14:09:09.656Z,98657.31
2024-05-09T14:10:44.534Z,98658.09
2024-05-09T14:12:16.756Z,98651.78
2024-05-09T14:13:48.485Z,98656.06
2024-05-09T14:15:20.199Z,98654.81
2024-05-09T14:16:52.046Z,98663.66
2024-05-09T14:18:24.065Z,98655.47
2024-05-09T14:19:55.916Z,98648.00
2024-05-09T14:21:27.701Z,98653.06
2024-05-09T14:23:00.706Z,98644.41
2024-05-09T14:24:33.256Z,98646.34
2024-05-09T14:26:05.225Z,98651.69
2024-05-09T14:27:37.083Z,98648.72
2024-05-09T14:29:08.809Z,98648.56
2024-05-09T14:30:41.278Z,98647.75
2024-05-09T14:32:13.216Z,98654.38
2024-05-09T14:33:45.076Z,98650.09
2024-05-09T14:35:17.041Z,98651.31
2024-05-09T14:36:48.869Z,98646.06
2024-05-09T14:38:20.832Z,98643.41
2024-05-09T14:39:52.722Z,98643.16
2024-05-09T14:41:24.509Z,98639.06
2024-05-09T14:42:57.433Z,98634.75
2024-05-09T14:44:30.739Z,98642.31
2024-05-09T14:46:02.627Z,98636.19
2024-05-09T14:47:34.763Z,98623.09
2024-05-09T14:49:08.585Z,98627.63
2024-05-09T14:50:42.350Z,98626.16
2024-05-09T14:52:14.397Z,98624.72
2024-05-09T14:53:46.338Z,98619.63
2024-05-09T14:55:18.099Z,98618.75
2024-05-09T14:56:51.238Z,98617.34
2024-05-09T14:58:23.794Z,98609.69
2024-05-09T14:59:55.729Z,98615.22
2024-05-09T15:01:28.126Z,98618.75
2024-05-09T15:03:00.485Z,98616.94
2024-05-09T15:04:32.572Z,98615.88
2024-05-09T15:06:04.820Z,98613.44
2024-05-09T15:07:37.695Z,98617.34
2024-05-09T15:09:10.177Z,98613.22
2024-05-09T15:10:41.937Z,98617.97
2024-05-09T15:12:13.798Z,98608.53
2024-05-09T15:13:45.557Z,98615.50
2024-05-09T15:15:18.024Z,98608.75
2024-05-09T15:16:50.081Z,98604.69
2024-05-09T15:18:22.192Z,98604.25
2024-05-09T15:19:54.054Z,98609.16
2024-05-09T15:21:25.881Z,98603.84
2024-05-09T15:22:58.472Z,98607.06
2024-05-09T15:24:30.322Z,98599.88
2024-05-09T15:26:03.878Z,98601.47
2024-05-09T15:27:35.646Z,98598.81
2024-05-09T15:29:07.493Z,98603.97
2024-05-09T15:30:40.664Z,98601.56
2024-05-09T15:32:14.712Z,98600.34
2024-05-09T15:33:46.549Z,98596.66
2024-05-09T15:35:18.427Z,98607.47
2024-05-09T15:36:51.341Z,98600.38
2024-05-09T15:38:23.210Z,98601.78
2024-05-09T15:39:54.965Z,98601.41
2024-05-09T15:41:26.864Z,98601.63
2024-05-09T15:42:58.638Z,98600.19
2024-05-09T15:44:30.548Z,98600.63
2024-05-09T15:46:02.468Z,98600.25
2024-05-09T15:47:34.699Z,98598.16
2024-05-09T15:49:06.724Z,98588.97
2024-05-09T15:50:41.321Z,98598.41
2024-05-09T15:52:17.959Z,98603.09
2024-05-09T15:53:49.800Z,98579.41
2024-05-09T15:55:21.730Z,98585.13
2024-05-09T15:56:53.851Z,98583.84
2024-05-09T15:58:25.802Z,98582.22
2024-05-09T15:59:58.045Z,98583.25
2024-05-09T16:01:30.148Z,98577.94
2024-05-09T16:03:02.036Z,98573.22
2024-05-09T16:04:34.016Z,98573.22
2024-05-09T16:06:06.528Z,98570.56
2024-05-09T16:07:39.124Z,98580.34
2024-05-09T16:09:10.938Z,98576.69
2024-05-09T16:10:45.886Z,98584.06
2024-05-09T16:12:18.643Z,98579.19
2024-05-09T16:13:50.385Z,98572.84
2024-05-09T16:15:22.188Z,98579.41
2024-05-09T16:16:54.176Z,98575.91
2024-05-09T16:18:26.234Z,98581.84
2024-05-09T16:19:58.245Z,98579.81
2024-05-09T16:21:30.020Z,98572.66
2024-05-09T16:23:01.820Z,98573.69
2024-05-09T16:24:33.687Z,98574.72
2024-05-09T16:26:06.214Z,98571.63
2024-05-09T16:27:38.410Z,98569.19
2024-05-09T16:29:10.228Z,98572.25
2024-05-09T16:30:42.245Z,98571.63
2024-05-09T16:32:14.044Z,98568.38
2024-05-09T16:33:45.940Z,98567.13
2024-05-09T16:35:17.802Z,98562.81
2024-05-09T16:36:51.457Z,98569.78
2024-05-09T16:38:23.387Z,98570.81
2024-05-09T16:39:55.136Z,98570.59
2024-05-09T16:41:26.896Z,98566.31
2024-05-09T16:43:00.092Z,98572.03
2024-05-09T16:44:33.640Z,98558.53
2024-05-09T16:46:06.283Z,98572.41
2024-05-09T16:47:38.698Z,98563.66
2024-05-09T16:49:10.994Z,98566.31
2024-05-09T16:50:42.861Z,98558.75
2024-05-09T16:52:15.676Z,98560.19
2024-05-09T16:53:47.507Z,98560.63
2024-05-09T16:55:21.269Z,98559.59
2024-05-09T16:56:53.192Z,98563.06
2024-05-09T16:58:26.558Z,98565.09
2024-05-09T16:59:58.357Z,98556.53
2024-05-09T17:01:30.872Z,98560.63
2024-05-09T17:03:02.818Z,98553.25
2024-05-09T17:04:34.811Z,98555.31
2024-05-09T17:06:06.688Z,98551.41
2024-05-09T17:07:38.639Z,98552.22
2024-05-09T17:09:12.021Z,98556.94
2024-05-09T17:10:51.290Z,98550.81
2024-05-09T17:12:25.382Z,98552.88
2024-05-09T17:13:57.199Z,98552.25
2024-05-09T17:15:28.935Z,98554.50
2024-05-09T17:17:00.943Z,98551.63
2024-05-09T17:18:32.846Z,98555.91
2024-05-09T17:20:08.574Z,98555.09
2024-05-09T17:21:44.287Z,98552.44
2024-05-09T17:23:16.061Z,98550.41
2024-05-09T17:24:47.845Z,98556.13
2024-05-09T17:26:20.451Z,98555.72
2024-05-09T17:27:52.281Z,98550.81
2024-05-09T17:29:24.171Z,98554.72
2024-05-09T17:30:55.997Z,98554.88
2024-05-09T17:32:27.911Z,98551.03
2024-05-09T17:34:00.295Z,98557.38
2024-05-09T17:35:32.505Z,98553.69
2024-05-09T17:37:04.663Z,98561.66
2024-05-09T17:38:36.477Z,98553.66
2024-05-09T17:40:16.608Z,98554.47
2024-05-09T17:41:48.935Z,98555.72
2024-05-09T17:43:21.238Z,98550.59
2024-05-09T17:44:53.163Z,98559.97
2024-05-09T17:46:25.081Z,98560.81
2024-05-09T17:47:57.286Z,98557.56
2024-05-09T17:49:29.389Z,98555.72
2024-05-09T17:51:01.231Z,98560.22
2024-05-09T17:52:32.974Z,98550.81
2024-05-09T17:54:04.733Z,98539.56
2024-05-09T17:55:37.066Z,98554.06
2024-05-09T17:57:09.287Z,98556.94
2024-05-09T17:58:41.397Z,98560.81
2024-05-09T18:00:17.396Z,98553.47
2024-05-09T18:01:52.918Z,98557.94
2024-05-09T18:03:24.795Z,98553.84
2024-05-09T18:04:56.848Z,98557.31
2024-05-09T18:06:28.630Z,98553.03
2024-05-09T18:08:00.422Z,98547.31
2024-05-09T18:09:32.207Z,98551.19
2024-05-09T18:11:04.307Z,98550.38
2024-05-09T18:12:36.366Z,98550.78
2024-05-09T18:14:08.212Z,98549.16
2024-05-09T18:15:40.498Z,98560.59
2024-05-09T18:17:13.486Z,98557.50
2024-05-09T18:18:45.785Z,98554.66
2024-05-09T18:20:28.317Z,98554.84
2024-05-09T18:22:08.340Z,98558.75